Time;durP1;ratioP1;P1;durP2;ratioP2;P2;SDS_P1;SDS_P2;PMS_P1;PMS_P2;Temp;Humidity;BMP_temperature;BMP_pressure;BME280_temperature;BME280_humidity;BME280_pressure;Samples;Min_cycle;Max_cycle;Signal;HPM_P1;HPM_P2
2021/03/23 00:00:27;;;;;;;7.40;2.72;;;3.10;99.90;;;;;;5032784;28;20135;-78
2021/03/23 00:02:56;;;;;;;7.35;3.38;;;3.10;99.90;;;;;;5033866;28;20085;-77
2021/03/23 00:05:21;;;;;;;6.65;2.70;;;2.90;99.90;;;;;;5044907;28;20474;-77
2021/03/23 00:07:47;;;;;;;5.88;3.00;;;2.90;99.90;;;;;;5039752;28;20100;-77
2021/03/23 00:10:15;;;;;;;10.80;3.85;;;3.00;99.90;;;;;;5040487;28;20474;-77
2021/03/23 00:12:41;;;;;;;6.00;2.80;;;3.10;99.90;;;;;;5044759;28;20556;-78
2021/03/23 00:15:09;;;;;;;3.72;2.53;;;3.30;99.90;;;;;;5047340;28;20089;-78
2021/03/23 00:17:35;;;;;;;9.27;3.20;;;3.30;99.90;;;;;;5043497;28;20098;-78
2021/03/23 00:20:00;;;;;;;8.07;3.08;;;2.90;99.90;;;;;;5034457;28;20074;-78
2021/03/23 00:22:26;;;;;;;4.72;3.10;;;3.10;99.90;;;;;;5030684;28;20073;-77
2021/03/23 00:24:51;;;;;;;8.55;3.35;;;3.00;99.90;;;;;;5045801;28;20539;-77
2021/03/23 00:27:17;;;;;;;6.45;3.25;;;3.10;99.90;;;;;;5030955;28;20094;-78
2021/03/23 00:29:45;;;;;;;7.88;4.22;;;3.00;99.90;;;;;;5048334;28;20144;-77
2021/03/23 00:32:11;;;;;;;10.98;3.97;;;3.10;99.90;;;;;;5036682;28;20074;-78
2021/03/23 00:34:37;;;;;;;7.10;3.42;;;3.00;99.90;;;;;;5036833;28;20077;-77
2021/03/23 00:37:03;;;;;;;7.25;2.95;;;3.00;99.90;;;;;;5052698;28;20132;-77
2021/03/23 00:39:28;;;;;;;5.80;2.97;;;3.00;99.90;;;;;;5050366;28;20501;-78
2021/03/23 00:41:54;;;;;;;7.45;3.50;;;3.00;99.90;;;;;;5052298;28;20483;-78
2021/03/23 00:44:20;;;;;;;8.50;3.97;;;2.90;99.90;;;;;;5044318;28;20085;-77
2021/03/23 00:46:46;;;;;;;8.25;3.35;;;2.90;99.90;;;;;;5042711;28;20172;-78
2021/03/23 00:49:11;;;;;;;7.57;3.72;;;3.00;99.90;;;;;;5043051;28;20128;-77
2021/03/23 00:51:37;;;;;;;7.45;3.40;;;2.90;99.90;;;;;;5040240;28;20128;-77
2021/03/23 00:54:03;;;;;;;7.82;3.75;;;2.80;99.90;;;;;;5043071;28;20586;-77
2021/03/23 00:56:28;;;;;;;9.93;3.10;;;3.00;99.90;;;;;;5040250;28;20482;-77
2021/03/23 00:58:54;;;;;;;8.27;2.80;;;2.80;99.90;;;;;;5048383;28;20085;-78
2021/03/23 01:01:20;;;;;;;10.13;3.05;;;2.60;99.90;;;;;;5057012;28;20082;-77
2021/03/23 01:03:45;;;;;;;7.95;3.17;;;2.60;99.90;;;;;;5046726;28;20087;-76
2021/03/23 01:06:11;;;;;;;6.43;3.28;;;2.70;99.90;;;;;;5056500;28;20155;-77
2021/03/23 01:08:37;;;;;;;6.82;3.80;;;2.70;99.90;;;;;;5051160;28;20165;-76
2021/03/23 01:11:03;;;;;;;6.43;3.60;;;2.80;99.90;;;;;;5035018;28;20082;-77
2021/03/23 01:13:28;;;;;;;7.20;3.72;;;2.80;99.90;;;;;;5041297;28;20081;-78
2021/03/23 01:15:54;;;;;;;7.90;3.15;;;2.90;99.90;;;;;;5043331;28;20102;-77
2021/03/23 01:18:20;;;;;;;6.20;3.17;;;2.60;99.90;;;;;;5048870;28;20120;-78
2021/03/23 01:20:46;;;;;;;7.05;3.58;;;2.80;99.90;;;;;;5039239;28;20082;-77
2021/03/23 01:23:11;;;;;;;6.65;4.13;;;2.90;99.90;;;;;;5041062;28;20082;-77
2021/03/23 01:25:37;;;;;;;7.85;3.92;;;2.90;99.90;;;;;;5039699;28;20104;-77
2021/03/23 01:28:03;;;;;;;5.93;3.38;;;3.00;99.90;;;;;;5036041;28;20127;-77
2021/03/23 01:30:28;;;;;;;5.00;3.05;;;2.80;99.90;;;;;;5054326;28;20081;-77
2021/03/23 01:32:55;;;;;;;6.38;3.90;;;2.70;99.90;;;;;;5053814;28;20164;-77
2021/03/23 01:35:22;;;;;;;7.57;3.25;;;2.60;99.90;;;;;;5043139;28;20089;-77
2021/03/23 01:37:48;;;;;;;5.82;3.20;;;2.70;99.90;;;;;;5054865;28;20184;-77
2021/03/23 01:40:17;;;;;;;6.85;3.08;;;2.50;99.90;;;;;;5053017;28;20127;-77
2021/03/23 01:42:46;;;;;;;5.82;3.55;;;2.50;99.90;;;;;;5035595;28;20082;-77
2021/03/23 01:45:41;;;;;;;6.28;3.42;;;2.50;99.90;;;;;;5050041;28;20740;-77
2021/03/23 01:48:21;;;;;;;9.20;3.80;;;2.40;99.90;;;;;;5052049;28;20434;-77
2021/03/23 01:50:56;;;;;;;8.27;4.45;;;2.70;99.90;;;;;;5043122;28;20526;-77
2021/03/23 01:53:40;;;;;;;9.10;4.05;;;2.70;99.90;;;;;;5032298;28;20136;-78
2021/03/23 01:56:07;;;;;;;6.55;3.53;;;2.30;99.90;;;;;;5031531;28;20106;-78
2021/03/23 01:58:36;;;;;;;13.98;4.13;;;2.20;99.90;;;;;;5049111;28;20077;-77
2021/03/23 02:01:02;;;;;;;9.38;3.70;;;2.30;99.90;;;;;;5048503;28;20295;-77
2021/03/23 02:03:28;;;;;;;10.88;4.13;;;2.40;99.90;;;;;;5034704;28;20072;-78
2021/03/23 02:05:59;;;;;;;8.40;4.85;;;2.50;99.90;;;;;;5041803;28;20165;-77
2021/03/23 02:08:26;;;;;;;11.15;4.85;;;2.50;99.90;;;;;;5047634;28;20077;-77
2021/03/23 02:10:54;;;;;;;8.00;3.75;;;2.70;99.90;;;;;;5036417;28;20555;-78
2021/03/23 02:13:21;;;;;;;9.43;4.32;;;2.60;99.90;;;;;;5035747;28;20066;-77
2021/03/23 02:15:47;;;;;;;8.65;4.43;;;2.60;99.90;;;;;;5031398;28;20085;-77
2021/03/23 02:18:19;;;;;;;13.50;3.47;;;2.40;99.90;;;;;;5049039;28;20076;-78
2021/03/23 02:20:57;;;;;;;8.40;4.05;;;2.20;99.90;;;;;;5035798;28;20132;-77
2021/03/23 02:23:33;;;;;;;9.20;3.83;;;2.10;99.90;;;;;;5044594;28;20212;-77
2021/03/23 02:25:59;;;;;;;7.13;3.60;;;2.30;99.90;;;;;;5052739;28;20104;-77
2021/03/23 02:28:25;;;;;;;6.93;3.70;;;2.10;99.90;;;;;;5043353;28;20164;-77
2021/03/23 02:30:52;;;;;;;8.43;4.35;;;2.10;99.90;;;;;;5048412;28;20073;-77
2021/03/23 02:33:19;;;;;;;6.05;3.65;;;2.10;99.90;;;;;;5050058;28;20107;-77
2021/03/23 02:35:45;;;;;;;6.70;4.07;;;1.90;99.90;;;;;;5051505;28;20082;-77
2021/03/23 02:38:11;;;;;;;6.28;4.20;;;1.70;99.90;;;;;;5034625;28;20404;-77
2021/03/23 02:40:38;;;;;;;8.93;4.13;;;1.80;99.90;;;;;;5040199;28;20078;-77
2021/03/23 02:43:04;;;;;;;10.82;4.43;;;2.00;99.90;;;;;;5039286;28;20078;-77
2021/03/23 02:45:30;;;;;;;6.68;3.13;;;2.00;99.90;;;;;;5047150;28;20155;-76
2021/03/23 02:47:55;;;;;;;6.95;3.70;;;1.90;99.90;;;;;;5041028;28;20084;-78
2021/03/23 02:50:21;;;;;;;8.68;3.55;;;1.80;99.90;;;;;;5049813;28;20160;-77
2021/03/23 02:52:46;;;;;;;11.05;4.55;;;1.60;99.90;;;;;;5045217;28;20085;-77
2021/03/23 02:55:13;;;;;;;6.85;4.22;;;1.60;99.90;;;;;;5044653;28;20110;-76
2021/03/23 02:57:39;;;;;;;6.88;3.97;;;1.80;99.90;;;;;;5034745;28;21010;-76
2021/03/23 03:00:07;;;;;;;7.15;3.72;;;1.70;99.90;;;;;;5043986;28;20168;-77
2021/03/23 03:02:33;;;;;;;8.18;4.25;;;1.70;99.90;;;;;;5038863;28;20097;-77
2021/03/23 03:04:58;;;;;;;7.13;3.72;;;1.50;99.90;;;;;;5041221;28;20085;-77
2021/03/23 03:07:24;;;;;;;9.02;3.70;;;1.60;99.90;;;;;;5030604;28;20130;-77
2021/03/23 03:09:50;;;;;;;10.05;4.20;;;1.60;99.90;;;;;;5039606;28;20519;-76
2021/03/23 03:12:15;;;;;;;7.90;3.50;;;1.50;99.90;;;;;;5038885;28;20088;-77
2021/03/23 03:14:41;;;;;;;6.65;4.18;;;1.70;99.90;;;;;;5032806;28;20078;-77
2021/03/23 03:17:06;;;;;;;10.63;4.47;;;1.80;99.90;;;;;;5030711;28;20208;-77
2021/03/23 03:19:32;;;;;;;5.75;3.53;;;1.70;99.90;;;;;;5037818;28;20501;-77
2021/03/23 03:21:58;;;;;;;8.50;4.43;;;1.60;99.90;;;;;;5041615;28;20534;-77
2021/03/23 03:24:23;;;;;;;8.93;4.40;;;1.70;99.90;;;;;;5033370;28;20503;-77
2021/03/23 03:26:49;;;;;;;8.75;4.25;;;1.80;99.90;;;;;;5035295;28;20102;-77
2021/03/23 03:29:14;;;;;;;9.90;4.28;;;2.00;99.90;;;;;;5034048;28;20143;-77
2021/03/23 03:31:40;;;;;;;13.02;4.60;;;2.00;99.90;;;;;;5048251;28;20081;-77
2021/03/23 03:34:06;;;;;;;4.85;3.50;;;1.80;99.90;;;;;;5044911;28;20475;-77
2021/03/23 03:36:33;;;;;;;9.40;3.83;;;2.00;99.90;;;;;;5041101;28;20112;-78
2021/03/23 03:38:59;;;;;;;8.10;4.03;;;2.10;99.90;;;;;;5031003;28;20528;-77
2021/03/23 03:41:26;;;;;;;14.68;6.22;;;2.00;99.90;;;;;;5033783;28;20084;-77
2021/03/23 03:43:53;;;;;;;9.70;4.38;;;2.10;99.90;;;;;;5035283;28;20324;-77
2021/03/23 03:46:19;;;;;;;9.93;4.13;;;2.20;99.90;;;;;;5035043;28;20107;-77
2021/03/23 03:48:45;;;;;;;6.90;4.45;;;2.20;99.90;;;;;;5029880;28;20078;-76
2021/03/23 03:51:11;;;;;;;11.23;4.95;;;2.30;99.90;;;;;;5045533;28;20070;-77
2021/03/23 03:53:36;;;;;;;7.32;4.18;;;2.30;99.90;;;;;;5046532;28;21950;-78
2021/03/23 03:56:02;;;;;;;7.68;4.75;;;2.20;99.90;;;;;;5032800;28;20204;-77
2021/03/23 03:58:29;;;;;;;7.82;5.00;;;2.40;99.90;;;;;;5036115;28;20085;-77
2021/03/23 04:00:54;;;;;;;9.15;4.43;;;2.40;99.90;;;;;;5038197;28;20528;-76
2021/03/23 04:03:23;;;;;;;8.32;4.65;;;2.30;99.90;;;;;;5051258;28;20081;-77
2021/03/23 04:05:50;;;;;;;8.15;4.72;;;2.30;99.90;;;;;;5041137;28;20184;-77
2021/03/23 04:08:20;;;;;;;9.52;5.72;;;2.30;99.90;;;;;;5035896;28;20070;-77
2021/03/23 04:10:47;;;;;;;9.63;4.53;;;2.30;99.90;;;;;;5035337;28;20471;-77
2021/03/23 04:13:13;;;;;;;11.75;5.60;;;2.30;99.90;;;;;;5050544;28;20088;-77
2021/03/23 04:15:42;;;;;;;9.30;4.78;;;2.40;99.90;;;;;;5037268;28;20081;-77
2021/03/23 04:18:09;;;;;;;7.93;4.55;;;2.50;99.90;;;;;;5049732;28;20786;-77
2021/03/23 04:20:35;;;;;;;8.65;4.72;;;2.30;99.90;;;;;;5048928;28;20160;-77
2021/03/23 04:23:02;;;;;;;11.20;5.32;;;2.30;99.90;;;;;;5041420;28;20092;-77
2021/03/23 04:25:30;;;;;;;10.13;5.43;;;2.30;99.90;;;;;;5038907;28;20101;-77
2021/03/23 04:27:57;;;;;;;9.98;4.43;;;2.40;99.90;;;;;;5034114;28;20070;-76
2021/03/23 04:30:23;;;;;;;6.68;4.82;;;2.40;99.90;;;;;;5041171;28;20077;-76
2021/03/23 04:32:50;;;;;;;14.13;5.07;;;2.30;99.90;;;;;;5050108;28;20070;-76
2021/03/23 04:35:38;;;;;;;7.47;4.60;;;2.40;99.90;;;;;;5041020;28;20070;-76
2021/03/23 04:38:03;;;;;;;7.93;5.22;;;2.50;99.90;;;;;;5043674;28;20092;-77
2021/03/23 04:40:29;;;;;;;9.40;5.32;;;2.40;99.90;;;;;;5049599;28;20070;-77
2021/03/23 04:42:54;;;;;;;10.60;4.38;;;2.30;99.90;;;;;;5039179;28;20116;-77
2021/03/23 04:45:20;;;;;;;10.80;5.60;;;2.20;99.90;;;;;;5048856;28;20578;-77
2021/03/23 04:47:47;;;;;;;12.15;5.22;;;2.30;99.90;;;;;;5039129;28;20590;-77
2021/03/23 04:50:13;;;;;;;11.98;5.47;;;2.40;99.90;;;;;;5049072;28;20085;-76
2021/03/23 04:52:39;;;;;;;11.95;6.55;;;2.40;99.90;;;;;;5038528;28;20102;-77
2021/03/23 04:55:05;;;;;;;12.70;6.28;;;2.40;99.90;;;;;;5034290;28;20113;-76
2021/03/23 04:57:31;;;;;;;10.27;5.72;;;2.30;99.90;;;;;;5049000;28;20110;-76
2021/03/23 04:59:56;;;;;;;10.65;5.68;;;2.40;99.90;;;;;;5049800;28;20503;-77
2021/03/23 05:02:22;;;;;;;10.80;5.72;;;2.40;99.90;;;;;;5042568;28;20073;-76
2021/03/23 05:04:47;;;;;;;10.00;6.38;;;2.50;99.90;;;;;;5046415;28;20127;-77
2021/03/23 05:07:13;;;;;;;9.55;6.38;;;2.40;99.90;;;;;;5042839;28;20101;-76
2021/03/23 05:09:39;;;;;;;11.27;7.18;;;2.40;99.90;;;;;;5045915;28;20078;-76
2021/03/23 05:12:05;;;;;;;10.82;6.65;;;2.30;99.90;;;;;;5053531;28;20103;-76
2021/03/23 05:14:30;;;;;;;13.27;6.68;;;2.30;99.90;;;;;;5045750;28;20088;-76
2021/03/23 05:16:56;;;;;;;13.73;7.30;;;2.40;99.90;;;;;;5045026;28;20455;-76
2021/03/23 05:19:22;;;;;;;12.63;6.68;;;2.30;99.90;;;;;;5049937;28;20086;-77
2021/03/23 05:21:47;;;;;;;14.18;8.05;;;2.40;99.90;;;;;;5051010;28;20081;-76
2021/03/23 05:24:13;;;;;;;15.45;7.35;;;2.40;99.90;;;;;;5038651;28;20084;-77
2021/03/23 05:26:38;;;;;;;14.05;7.60;;;2.30;99.90;;;;;;5042238;28;20104;-77
2021/03/23 05:29:04;;;;;;;16.85;7.07;;;2.30;99.90;;;;;;5050529;28;20105;-76
2021/03/23 05:31:30;;;;;;;13.38;7.28;;;2.20;99.90;;;;;;5042768;28;20585;-77
2021/03/23 05:33:56;;;;;;;12.30;7.28;;;2.30;99.90;;;;;;5038073;28;20066;-76
2021/03/23 05:36:21;;;;;;;12.63;7.53;;;2.10;99.90;;;;;;5038514;28;20621;-76
2021/03/23 05:38:47;;;;;;;13.77;7.68;;;2.30;99.90;;;;;;5035555;28;20070;-76
2021/03/23 05:41:34;;;;;;;16.35;7.32;;;2.30;99.90;;;;;;5039164;28;20485;-77
2021/03/23 05:44:19;;;;;;;14.57;7.20;;;2.50;99.90;;;;;;5038574;28;20072;-76
2021/03/23 05:46:44;;;;;;;12.05;8.02;;;2.30;99.90;;;;;;5040839;28;20118;-76
2021/03/23 05:49:27;;;;;;;16.65;8.90;;;2.30;99.90;;;;;;5044859;28;20074;-77
2021/03/23 05:52:22;;;;;;;12.40;6.07;;;2.40;99.90;;;;;;5046895;28;20150;-77
2021/03/23 05:54:58;;;;;;;15.70;8.27;;;2.50;99.90;;;;;;5046591;28;20082;-76
2021/03/23 05:57:36;;;;;;;14.95;7.55;;;2.20;99.90;;;;;;5031330;28;20574;-77
2021/03/23 06:00:17;;;;;;;16.20;6.70;;;2.20;99.90;;;;;;5039709;28;20550;-77
2021/03/23 06:03:16;;;;;;;16.08;7.47;;;2.30;99.90;;;;;;5039223;28;20074;-77
2021/03/23 06:06:04;;;;;;;15.00;7.63;;;2.30;99.90;;;;;;5038935;28;20089;-77
2021/03/23 06:08:36;;;;;;;14.35;7.20;;;2.30;99.90;;;;;;5024711;28;20104;-77
2021/03/23 06:11:05;;;;;;;13.63;7.47;;;2.30;99.90;;;;;;5044292;28;20152;-77
2021/03/23 06:13:39;;;;;;;10.43;6.13;;;2.40;99.90;;;;;;5031415;28;20177;-77
2021/03/23 06:16:34;;;;;;;16.40;7.75;;;2.50;99.90;;;;;;5040935;28;20096;-77
2021/03/23 06:19:16;;;;;;;15.13;7.95;;;2.60;99.90;;;;;;5045696;28;20081;-78
2021/03/23 06:21:54;;;;;;;16.02;7.82;;;2.70;99.90;;;;;;5037305;28;20085;-77
2021/03/23 06:24:40;;;;;;;12.75;7.20;;;2.40;99.90;;;;;;5037664;28;20073;-77
2021/03/23 06:27:34;;;;;;;13.63;6.95;;;2.40;99.90;;;;;;5038876;28;20121;-76
2021/03/23 06:30:27;;;;;;;18.23;7.88;;;2.60;99.90;;;;;;5036261;28;20681;-77
2021/03/23 06:32:55;;;;;;;13.65;7.60;;;2.80;99.90;;;;;;5038023;28;20599;-77
2021/03/23 06:35:53;;;;;;;14.27;9.27;;;2.50;99.90;;;;;;5044389;28;20123;-78
2021/03/23 06:38:37;;;;;;;18.65;7.75;;;2.40;99.90;;;;;;5036063;28;20152;-77
2021/03/23 06:41:12;;;;;;;15.55;7.63;;;2.40;99.90;;;;;;5043099;28;20157;-77
2021/03/23 06:43:42;;;;;;;15.35;8.18;;;2.50;99.90;;;;;;5041015;28;20087;-76
2021/03/23 06:46:31;;;;;;;19.33;7.57;;;2.40;99.90;;;;;;5043126;28;20123;-75
2021/03/23 06:49:08;;;;;;;14.63;8.07;;;2.50;99.90;;;;;;5042160;28;20591;-77
2021/03/23 06:51:35;;;;;;;20.73;8.45;;;2.40;99.90;;;;;;5041585;28;20171;-75
2021/03/23 06:54:18;;;;;;;17.85;8.57;;;2.60;99.90;;;;;;5042267;28;20448;-75
2021/03/23 06:56:44;;;;;;;17.52;8.55;;;2.50;99.90;;;;;;5044618;28;20109;-76
2021/03/23 06:59:19;;;;;;;16.10;8.00;;;2.60;99.90;;;;;;5048733;28;20081;-75
2021/03/23 07:01:51;;;;;;;17.40;8.93;;;2.60;99.90;;;;;;5045603;28;20088;-75
2021/03/23 07:04:25;;;;;;;15.45;7.45;;;2.70;99.90;;;;;;5032132;28;20104;-75
2021/03/23 07:07:18;;;;;;;14.93;8.40;;;2.80;99.90;;;;;;5030470;28;20090;-75
2021/03/23 07:09:48;;;;;;;13.10;7.93;;;2.80;99.90;;;;;;5036924;28;20431;-75
2021/03/23 07:12:14;;;;;;;13.93;8.10;;;2.80;99.90;;;;;;5041951;28;20144;-75
2021/03/23 07:14:44;;;;;;;16.55;8.82;;;2.80;99.90;;;;;;5043033;28;20172;-75
2021/03/23 07:17:09;;;;;;;19.40;9.77;;;2.90;99.90;;;;;;5038676;28;20094;-75
2021/03/23 07:19:49;;;;;;;17.58;9.52;;;2.90;99.90;;;;;;5031322;28;20084;-75
2021/03/23 07:22:35;;;;;;;22.17;9.77;;;2.90;99.90;;;;;;5049838;28;20073;-75
2021/03/23 07:25:04;;;;;;;19.95;10.43;;;3.00;99.90;;;;;;5025689;28;20107;-75
2021/03/23 07:27:30;;;;;;;22.02;10.25;;;3.00;99.90;;;;;;5034845;28;20167;-75
2021/03/23 07:30:35;;;;;;;19.15;10.15;;;3.00;99.90;;;;;;5045838;28;20548;-75
2021/03/23 07:33:07;;;;;;;23.25;9.95;;;3.00;99.90;;;;;;5041792;28;20112;-74
2021/03/23 07:35:37;;;;;;;21.50;10.77;;;3.10;99.90;;;;;;5042065;28;20081;-75
2021/03/23 07:38:14;;;;;;;20.20;10.50;;;3.00;99.90;;;;;;5033013;28;20078;-76
2021/03/23 07:40:47;;;;;;;26.90;11.00;;;3.10;99.90;;;;;;5036057;28;20478;-76
2021/03/23 07:43:29;;;;;;;25.73;10.70;;;3.10;99.90;;;;;;5045111;28;20070;-76
2021/03/23 07:46:39;;;;;;;21.70;11.07;;;3.20;99.90;;;;;;5030261;28;20095;-75
2021/03/23 07:49:14;;;;;;;22.40;11.65;;;3.20;99.90;;;;;;5033965;28;20088;-76
2021/03/23 07:51:52;;;;;;;25.23;12.95;;;3.30;99.90;;;;;;5045722;28;20077;-75
2021/03/23 07:54:32;;;;;;;25.55;13.43;;;3.40;99.90;;;;;;5037373;28;20089;-76
2021/03/23 07:56:57;;;;;;;28.88;12.77;;;3.50;99.90;;;;;;5032432;28;20140;-75
2021/03/23 08:00:02;;;;;;;28.02;12.15;;;3.50;99.90;;;;;;5044491;28;20551;-75
2021/03/23 08:02:43;;;;;;;27.52;13.30;;;3.60;99.90;;;;;;5041267;28;20069;-75
2021/03/23 08:05:19;;;;;;;23.05;11.90;;;3.60;99.90;;;;;;5041733;28;20081;-75
2021/03/23 08:08:06;;;;;;;23.77;11.40;;;3.60;99.90;;;;;;5044651;28;20092;-75
2021/03/23 08:10:43;;;;;;;22.20;10.95;;;3.70;99.90;;;;;;5045586;28;20077;-74
2021/03/23 08:13:36;;;;;;;21.92;11.02;;;3.70;99.90;;;;;;5039244;28;20078;-76
2021/03/23 08:16:27;;;;;;;18.27;10.25;;;3.70;99.90;;;;;;5035200;28;20105;-76
2021/03/23 08:19:22;;;;;;;19.15;10.23;;;3.80;99.90;;;;;;5032261;28;20462;-75
2021/03/23 08:22:04;;;;;;;18.17;9.13;;;3.80;99.90;;;;;;5046256;28;20089;-76
2021/03/23 08:24:45;;;;;;;19.52;10.07;;;3.90;99.90;;;;;;5048284;28;20107;-76
2021/03/23 08:27:29;;;;;;;23.67;10.43;;;3.90;99.90;;;;;;5037568;28;20132;-77
2021/03/23 08:30:07;;;;;;;20.70;9.57;;;4.00;99.90;;;;;;5029366;28;20085;-77
2021/03/23 08:33:15;;;;;;;17.83;10.63;;;4.00;99.90;;;;;;5042989;28;20081;-76
2021/03/23 08:36:07;;;;;;;19.90;10.45;;;4.20;99.90;;;;;;5020560;28;20117;-76
2021/03/23 08:38:55;;;;;;;18.98;10.00;;;4.30;99.90;;;;;;5042478;28;20295;-76
2021/03/23 08:41:58;;;;;;;17.83;10.00;;;4.40;99.90;;;;;;5044935;28;20089;-75
2021/03/23 08:44:33;;;;;;;18.73;9.82;;;4.40;99.90;;;;;;5044131;28;20690;-76
2021/03/23 08:47:14;;;;;;;16.85;9.38;;;4.40;99.90;;;;;;5042725;28;20107;-77
2021/03/23 08:49:41;;;;;;;20.42;10.23;;;4.40;99.90;;;;;;5049096;28;20088;-77
2021/03/23 08:52:25;;;;;;;20.95;9.68;;;4.50;99.90;;;;;;5048762;28;20077;-75
2021/03/23 08:54:51;;;;;;;20.40;8.70;;;4.70;99.90;;;;;;5036320;28;20077;-75
2021/03/23 08:57:17;;;;;;;21.20;10.20;;;4.80;99.90;;;;;;5036783;28;20101;-75
2021/03/23 08:59:53;;;;;;;14.13;8.18;;;4.80;99.90;;;;;;5045799;28;20497;-75
2021/03/23 09:02:33;;;;;;;19.88;8.95;;;4.90;99.90;;;;;;5047874;28;20118;-77
2021/03/23 09:04:59;;;;;;;17.00;8.07;;;5.00;99.90;;;;;;5043582;28;20900;-75
2021/03/23 09:07:34;;;;;;;13.32;6.95;;;5.00;99.90;;;;;;5050567;28;20098;-74
2021/03/23 09:10:00;;;;;;;14.25;7.25;;;5.10;99.90;;;;;;5049222;28;20099;-76
2021/03/23 09:12:42;;;;;;;20.17;8.60;;;5.10;99.90;;;;;;5044519;28;20725;-75
2021/03/23 09:15:10;;;;;;;14.88;8.23;;;5.20;99.90;;;;;;5047703;28;20141;-74
2021/03/23 09:17:55;;;;;;;18.13;8.57;;;5.40;99.90;;;;;;5033390;28;20098;-75
2021/03/23 09:20:33;;;;;;;15.85;8.75;;;5.40;99.90;;;;;;5036932;28;20483;-76
2021/03/23 09:23:20;;;;;;;20.20;9.90;;;5.60;99.90;;;;;;5045406;28;20077;-76
2021/03/23 09:26:00;;;;;;;16.70;7.07;;;5.60;99.90;;;;;;5035660;28;20555;-75
2021/03/23 09:28:29;;;;;;;11.80;6.15;;;5.60;99.90;;;;;;5042513;28;20554;-75
2021/03/23 09:31:06;;;;;;;14.10;6.43;;;5.70;99.90;;;;;;5034905;28;20070;-76
2021/03/23 09:33:45;;;;;;;13.48;6.57;;;5.80;99.90;;;;;;5043167;28;20081;-75
2021/03/23 09:36:12;;;;;;;11.05;6.25;;;5.90;99.90;;;;;;5036630;28;20169;-76
2021/03/23 09:38:44;;;;;;;10.82;5.68;;;5.90;99.90;;;;;;5037518;28;20103;-75
2021/03/23 09:41:33;;;;;;;11.30;6.15;;;5.80;99.90;;;;;;5044637;28;20104;-76
2021/03/23 09:44:05;;;;;;;13.95;6.50;;;6.10;99.90;;;;;;5037635;28;20073;-76
2021/03/23 09:47:00;;;;;;;18.63;6.82;;;6.00;99.90;;;;;;5038322;28;20094;-77
2021/03/23 09:49:48;;;;;;;15.98;6.90;;;6.20;99.90;;;;;;5041345;28;20082;-76
2021/03/23 09:52:30;;;;;;;13.40;6.72;;;6.10;99.90;;;;;;5051151;28;20076;-77
2021/03/23 09:54:58;;;;;;;16.10;6.38;;;6.30;99.90;;;;;;5032321;28;20093;-75
2021/03/23 09:57:27;;;;;;;14.20;6.25;;;6.40;99.90;;;;;;5031132;28;20176;-76
2021/03/23 09:59:56;;;;;;;11.52;5.53;;;6.50;99.90;;;;;;5045564;28;20094;-75
2021/03/23 10:02:26;;;;;;;13.40;5.75;;;6.60;99.90;;;;;;5044758;28;20160;-75
2021/03/23 10:04:52;;;;;;;12.75;6.63;;;6.40;99.90;;;;;;5042374;28;20074;-75
2021/03/23 10:07:36;;;;;;;15.68;6.03;;;6.60;99.90;;;;;;5030013;28;20541;-77
2021/03/23 10:10:11;;;;;;;10.93;5.57;;;6.50;99.90;;;;;;5037120;28;20062;-74
2021/03/23 10:12:36;;;;;;;10.25;5.65;;;6.50;99.90;;;;;;5040080;28;20126;-74
2021/03/23 10:15:39;;;;;;;14.25;5.78;;;6.40;99.90;;;;;;5049931;28;20168;-75
2021/03/23 10:18:16;;;;;;;11.98;5.22;;;6.40;99.90;;;;;;5027623;28;20078;-75
2021/03/23 10:20:43;;;;;;;14.25;5.13;;;6.40;99.90;;;;;;5041691;28;20160;-75
2021/03/23 10:23:09;;;;;;;11.90;6.15;;;6.50;99.90;;;;;;5049882;28;20104;-75
2021/03/23 10:25:35;;;;;;;14.88;6.55;;;6.50;99.90;;;;;;5046585;28;21071;-75
2021/03/23 10:28:03;;;;;;;11.38;5.45;;;6.50;99.90;;;;;;5040375;28;20437;-74
2021/03/23 10:30:37;;;;;;;11.43;5.28;;;6.50;99.90;;;;;;5047258;28;20161;-76
2021/03/23 10:33:21;;;;;;;10.38;5.88;;;6.40;99.90;;;;;;5041891;28;20900;-76
2021/03/23 10:35:46;;;;;;;13.13;5.70;;;6.40;99.90;;;;;;5039676;28;20077;-74
2021/03/23 10:38:21;;;;;;;12.38;5.63;;;6.40;99.90;;;;;;5044756;28;20093;-77
2021/03/23 10:40:57;;;;;;;12.23;5.85;;;6.30;99.90;;;;;;5029623;28;20080;-76
2021/03/23 10:43:32;;;;;;;10.40;5.28;;;6.30;99.90;;;;;;5050382;28;20115;-75
2021/03/23 10:45:58;;;;;;;;;;;6.30;99.90;;;;;;5033117;28;20530;-75
2021/03/23 10:48:27;;;;;;;11.57;4.88;;;6.30;99.90;;;;;;5041757;28;20007;-77
2021/03/23 10:51:22;;;;;;;10.30;4.97;;;6.20;99.90;;;;;;5036018;28;20070;-75
2021/03/23 10:54:16;;;;;;;10.25;5.60;;;6.10;99.90;;;;;;5040684;28;20118;-75
2021/03/23 10:56:54;;;;;;;12.73;5.90;;;6.00;99.90;;;;;;5031029;28;20733;-76
2021/03/23 10:59:23;;;;;;;11.43;6.13;;;6.00;99.90;;;;;;5034930;28;20081;-74
2021/03/23 11:02:10;;;;;;;12.57;5.72;;;6.00;99.90;;;;;;5048025;28;20085;-74
2021/03/23 11:04:59;;;;;;;12.43;5.30;;;6.00;99.90;;;;;;5038547;28;20081;-74
2021/03/23 11:07:29;;;;;;;11.00;4.80;;;6.00;99.90;;;;;;5039422;28;20104;-74
2021/03/23 11:10:00;;;;;;;10.13;5.30;;;6.00;99.90;;;;;;5035471;28;20066;-76
2021/03/23 11:12:31;;;;;;;8.98;4.75;;;6.10;99.90;;;;;;5041000;28;20065;-74
2021/03/23 11:14:59;;;;;;;8.73;4.70;;;6.10;99.90;;;;;;5043921;28;20070;-73
2021/03/23 11:17:26;;;;;;;8.85;4.45;;;6.10;99.90;;;;;;5028552;28;20093;-75
2021/03/23 11:20:05;;;;;;;8.43;4.70;;;6.10;99.90;;;;;;5036043;28;20159;-76
2021/03/23 11:22:53;;;;;;;8.25;4.95;;;6.10;99.90;;;;;;5042796;28;20073;-76
2021/03/23 11:25:25;;;;;;;10.13;4.93;;;6.10;99.90;;;;;;5045792;28;20094;-74
2021/03/23 11:27:52;;;;;;;9.95;4.90;;;6.20;99.90;;;;;;5043367;28;20090;-77
2021/03/23 11:30:45;;;;;;;11.43;5.03;;;6.20;99.90;;;;;;5044892;28;20161;-76
2021/03/23 11:33:32;;;;;;;14.55;5.93;;;6.20;99.90;;;;;;5035439;28;20077;-77
2021/03/23 11:36:05;;;;;;;12.40;5.65;;;6.20;99.90;;;;;;5039790;28;20097;-77
2021/03/23 11:38:35;;;;;;;9.00;5.20;;;6.10;99.90;;;;;;5037351;28;20075;-77
2021/03/23 11:41:04;;;;;;;10.70;6.18;;;6.10;99.90;;;;;;5029995;28;20177;-76
2021/03/23 11:43:44;;;;;;;8.35;4.43;;;6.00;99.90;;;;;;5042122;28;20093;-76
2021/03/23 11:46:29;;;;;;;9.57;3.97;;;6.00;99.90;;;;;;5051870;28;20097;-76
2021/03/23 11:49:07;;;;;;;9.50;4.60;;;5.90;99.90;;;;;;5050890;28;20069;-76
2021/03/23 11:51:37;;;;;;;9.15;4.07;;;5.90;99.90;;;;;;5040788;28;20104;-77
2021/03/23 11:54:03;;;;;;;10.25;5.35;;;6.00;99.90;;;;;;5044555;28;20474;-75
2021/03/23 11:56:29;;;;;;;12.77;5.57;;;6.00;99.90;;;;;;5046104;28;20524;-77
2021/03/23 11:58:55;;;;;;;9.48;5.43;;;6.00;99.90;;;;;;5043320;28;20073;-77
2021/03/23 12:01:24;;;;;;;16.35;6.80;;;6.00;99.90;;;;;;5048613;28;20168;-77
2021/03/23 12:03:50;;;;;;;12.38;6.82;;;6.00;99.90;;;;;;5043017;28;20077;-76
2021/03/23 12:06:28;;;;;;;12.23;6.57;;;6.00;99.90;;;;;;5044978;28;20166;-77
2021/03/23 12:09:00;;;;;;;13.43;6.47;;;5.90;99.90;;;;;;5037630;28;20431;-76
2021/03/23 12:11:39;;;;;;;15.98;8.07;;;5.60;99.90;;;;;;5033705;28;20070;-77
2021/03/23 12:14:24;;;;;;;14.15;7.55;;;5.70;99.90;;;;;;5036341;28;20076;-76
2021/03/23 12:17:03;;;;;;;12.30;6.35;;;5.70;99.90;;;;;;5037587;28;20085;-77
2021/03/23 12:19:34;;;;;;;15.25;8.52;;;5.90;99.90;;;;;;5034397;28;20785;-75
2021/03/23 12:22:01;;;;;;;16.77;7.75;;;5.90;99.90;;;;;;5045551;28;20201;-75
2021/03/23 12:24:27;;;;;;;16.67;8.57;;;5.80;99.90;;;;;;5046027;28;20077;-74
2021/03/23 12:26:53;;;;;;;14.65;8.20;;;5.90;99.90;;;;;;5035476;28;20571;-77
2021/03/23 12:29:20;;;;;;;17.08;8.82;;;5.80;99.90;;;;;;5051740;28;20073;-75
2021/03/23 12:31:47;;;;;;;17.05;9.30;;;5.80;99.90;;;;;;5051042;28;20074;-75
2021/03/23 12:34:12;;;;;;;16.58;9.07;;;5.90;99.90;;;;;;5040374;28;20097;-75
2021/03/23 12:36:41;;;;;;;17.52;8.13;;;5.70;99.90;;;;;;5033151;28;20171;-74
2021/03/23 12:39:08;;;;;;;16.25;9.40;;;5.70;99.90;;;;;;5049612;28;20130;-75
2021/03/23 12:41:35;;;;;;;15.93;6.85;;;5.70;99.90;;;;;;5051735;28;20081;-73
2021/03/23 12:44:03;;;;;;;19.00;9.73;;;5.60;99.90;;;;;;5050396;28;20077;-74
2021/03/23 12:46:29;;;;;;;15.27;8.20;;;5.60;99.90;;;;;;5042553;28;20098;-74
2021/03/23 12:48:55;;;;;;;15.80;8.73;;;5.50;99.90;;;;;;5036357;28;20131;-76
2021/03/23 12:51:34;;;;;;;16.83;8.30;;;5.60;99.90;;;;;;5052854;28;20073;-75
2021/03/23 12:54:00;;;;;;;18.52;8.95;;;5.70;99.90;;;;;;5037079;28;20073;-75
2021/03/23 12:56:27;;;;;;;13.95;8.10;;;5.70;99.90;;;;;;5039734;28;20108;-74
2021/03/23 12:58:53;;;;;;;14.18;8.45;;;5.80;99.90;;;;;;5034629;28;20551;-75
2021/03/23 13:01:20;;;;;;;14.55;8.38;;;5.80;99.90;;;;;;5034809;28;20085;-76
2021/03/23 13:03:46;;;;;;;15.05;8.68;;;5.70;99.90;;;;;;5042829;28;20535;-75
2021/03/23 13:06:15;;;;;;;15.70;8.20;;;5.70;99.90;;;;;;5051568;28;20093;-75
2021/03/23 13:08:43;;;;;;;17.73;8.77;;;5.80;99.90;;;;;;5042014;28;20597;-75
2021/03/23 13:11:16;;;;;;;11.57;6.55;;;5.80;99.90;;;;;;5033139;28;20070;-75
2021/03/23 13:13:51;;;;;;;14.60;7.32;;;5.80;99.90;;;;;;5048738;28;20145;-75
2021/03/23 13:16:19;;;;;;;11.35;7.68;;;5.80;99.90;;;;;;5046290;28;20093;-75